sensor_id;sensor_type;location;lat;lon;timestamp;temperature;humidity
5280;DHT22;2663;53.588;10.010;2022-12-20T00:01:24;9.40;99.90
5280;DHT22;2663;53.588;10.010;2022-12-20T00:03:53;9.40;99.90
5280;DHT22;2663;53.588;10.010;2022-12-20T00:06:20;9.50;99.90
5280;DHT22;2663;53.588;10.010;2022-12-20T00:08:52;9.40;99.90
5280;DHT22;2663;53.588;10.010;2022-12-20T00:11:19;9.50;99.90
5280;DHT22;2663;53.588;10.010;2022-12-20T00:13:46;9.50;99.90
5280;DHT22;2663;53.588;10.010;2022-12-20T00:16:21;9.50;99.90
5280;DHT22;2663;53.588;10.010;2022-12-20T00:18:56;9.60;99.90
5280;DHT22;2663;53.588;10.010;2022-12-20T00:21:24;9.60;99.90
5280;DHT22;2663;53.588;10.010;2022-12-20T00:23:52;9.70;99.90
5280;DHT22;2663;53.588;10.010;2022-12-20T00:26:22;9.60;99.90
5280;DHT22;2663;53.588;10.010;2022-12-20T00:28:51;9.60;99.90
5280;DHT22;2663;53.588;10.010;2022-12-20T00:31:19;9.70;99.90
5280;DHT22;2663;53.588;10.010;2022-12-20T00:33:48;9.60;99.90
5280;DHT22;2663;53.588;10.010;2022-12-20T00:36:16;9.60;99.90
5280;DHT22;2663;53.588;10.010;2022-12-20T00:38:44;9.60;99.90
5280;DHT22;2663;53.588;10.010;2022-12-20T00:41:17;9.60;99.90
5280;DHT22;2663;53.588;10.010;2022-12-20T00:43:44;9.60;99.90
5280;DHT22;2663;53.588;10.010;2022-12-20T00:46:12;9.60;99.90
5280;DHT22;2663;53.588;10.010;2022-12-20T00:48:39;9.60;99.90
5280;DHT22;2663;53.588;10.010;2022-12-20T00:51:09;9.60;99.90
5280;DHT22;2663;53.588;10.010;2022-12-20T00:53:36;9.60;99.90
5280;DHT22;2663;53.588;10.010;2022-12-20T00:56:03;9.60;99.90
5280;DHT22;2663;53.588;10.010;2022-12-20T00:58:32;9.60;99.90
5280;DHT22;2663;53.588;10.010;2022-12-20T01:00:59;9.50;99.90
5280;DHT22;2663;53.588;10.010;2022-12-20T01:03:26;9.50;99.90
5280;DHT22;2663;53.588;10.010;2022-12-20T01:05:58;9.50;99.90
5280;DHT22;2663;53.588;10.010;2022-12-20T01:08:28;9.50;99.90
5280;DHT22;2663;53.588;10.010;2022-12-20T01:11:15;9.50;99.90
5280;DHT22;2663;53.588;10.010;2022-12-20T01:13:44;9.50;99.90
5280;DHT22;2663;53.588;10.010;2022-12-20T01:16:21;9.50;99.90
5280;DHT22;2663;53.588;10.010;2022-12-20T01:18:49;9.50;99.90
5280;DHT22;2663;53.588;10.010;2022-12-20T01:21:17;9.50;99.90
5280;DHT22;2663;53.588;10.010;2022-12-20T01:23:44;9.60;99.90
5280;DHT22;2663;53.588;10.010;2022-12-20T01:26:14;9.50;99.90
5280;DHT22;2663;53.588;10.010;2022-12-20T01:28:44;9.50;99.90
5280;DHT22;2663;53.588;10.010;2022-12-20T01:31:14;9.60;99.90
5280;DHT22;2663;53.588;10.010;2022-12-20T01:33:42;9.60;99.90
5280;DHT22;2663;53.588;10.010;2022-12-20T01:36:15;9.60;99.90
5280;DHT22;2663;53.588;10.010;2022-12-20T01:38:42;9.60;99.90
5280;DHT22;2663;53.588;10.010;2022-12-20T01:41:16;9.70;99.90
5280;DHT22;2663;53.588;10.010;2022-12-20T01:44:04;9.70;99.90
5280;DHT22;2663;53.588;10.010;2022-12-20T01:46:34;9.80;99.90
5280;DHT22;2663;53.588;10.010;2022-12-20T01:51:42;9.80;99.90
5280;DHT22;2663;53.588;10.010;2022-12-20T01:54:18;9.80;99.90
5280;DHT22;2663;53.588;10.010;2022-12-20T01:56:49;9.80;99.90
5280;DHT22;2663;53.588;10.010;2022-12-20T01:59:18;9.90;99.90
5280;DHT22;2663;53.588;10.010;2022-12-20T02:01:45;9.90;99.90
5280;DHT22;2663;53.588;10.010;2022-12-20T02:04:12;9.90;99.90
5280;DHT22;2663;53.588;10.010;2022-12-20T02:06:39;9.90;99.90
5280;DHT22;2663;53.588;10.010;2022-12-20T02:09:06;10.00;99.90
5280;DHT22;2663;53.588;10.010;2022-12-20T02:12:14;10.00;99.90
5280;DHT22;2663;53.588;10.010;2022-12-20T02:18:24;10.10;99.90
5280;DHT22;2663;53.588;10.010;2022-12-20T02:29:55;10.10;99.90
5280;DHT22;2663;53.588;10.010;2022-12-20T02:33:26;10.10;99.90
5280;DHT22;2663;53.588;10.010;2022-12-20T02:35:54;10.10;99.90
5280;DHT22;2663;53.588;10.010;2022-12-20T02:38:32;10.10;99.90
5280;DHT22;2663;53.588;10.010;2022-12-20T02:41:07;10.20;99.90
5280;DHT22;2663;53.588;10.010;2022-12-20T02:43:37;10.20;99.90
5280;DHT22;2663;53.588;10.010;2022-12-20T02:46:25;10.20;99.90
5280;DHT22;2663;53.588;10.010;2022-12-20T02:48:55;10.20;99.90
5280;DHT22;2663;53.588;10.010;2022-12-20T02:51:25;10.20;99.90
5280;DHT22;2663;53.588;10.010;2022-12-20T02:53:54;10.30;99.90
5280;DHT22;2663;53.588;10.010;2022-12-20T02:56:31;10.30;99.90
5280;DHT22;2663;53.588;10.010;2022-12-20T02:59:14;10.30;99.90
5280;DHT22;2663;53.588;10.010;2022-12-20T03:01:48;10.30;99.90
5280;DHT22;2663;53.588;10.010;2022-12-20T03:04:17;10.30;99.90
5280;DHT22;2663;53.588;10.010;2022-12-20T03:07:04;10.40;99.90
5280;DHT22;2663;53.588;10.010;2022-12-20T03:09:32;10.40;99.90
5280;DHT22;2663;53.588;10.010;2022-12-20T03:11:59;10.50;99.90
5280;DHT22;2663;53.588;10.010;2022-12-20T03:14:26;10.50;99.90
5280;DHT22;2663;53.588;10.010;2022-12-20T03:16:59;10.50;99.90
5280;DHT22;2663;53.588;10.010;2022-12-20T03:19:26;10.50;99.90
5280;DHT22;2663;53.588;10.010;2022-12-20T03:21:52;10.50;99.90
5280;DHT22;2663;53.588;10.010;2022-12-20T03:24:19;10.60;99.90
5280;DHT22;2663;53.588;10.010;2022-12-20T03:26:46;10.60;99.90
5280;DHT22;2663;53.588;10.010;2022-12-20T03:29:13;10.60;99.90
5280;DHT22;2663;53.588;10.010;2022-12-20T03:31:40;10.60;99.90
5280;DHT22;2663;53.588;10.010;2022-12-20T03:34:06;10.60;99.90
5280;DHT22;2663;53.588;10.010;2022-12-20T03:36:33;10.70;99.90
5280;DHT22;2663;53.588;10.010;2022-12-20T03:39:00;10.70;99.90
5280;DHT22;2663;53.588;10.010;2022-12-20T03:41:27;10.70;99.90
5280;DHT22;2663;53.588;10.010;2022-12-20T03:43:54;10.80;99.90
5280;DHT22;2663;53.588;10.010;2022-12-20T03:46:20;10.70;99.90
5280;DHT22;2663;53.588;10.010;2022-12-20T03:48:47;10.80;99.90
5280;DHT22;2663;53.588;10.010;2022-12-20T03:51:14;10.80;99.90
5280;DHT22;2663;53.588;10.010;2022-12-20T03:53:41;10.80;99.90
5280;DHT22;2663;53.588;10.010;2022-12-20T03:56:08;10.90;99.90
5280;DHT22;2663;53.588;10.010;2022-12-20T03:58:35;10.90;99.90
5280;DHT22;2663;53.588;10.010;2022-12-20T04:01:01;10.90;99.90
5280;DHT22;2663;53.588;10.010;2022-12-20T04:03:41;10.90;99.90
5280;DHT22;2663;53.588;10.010;2022-12-20T04:06:08;10.90;99.90
5280;DHT22;2663;53.588;10.010;2022-12-20T04:08:34;10.90;99.90
5280;DHT22;2663;53.588;10.010;2022-12-20T04:11:01;10.90;99.90
5280;DHT22;2663;53.588;10.010;2022-12-20T04:13:44;10.90;99.90
5280;DHT22;2663;53.588;10.010;2022-12-20T04:16:12;11.00;99.90
5280;DHT22;2663;53.588;10.010;2022-12-20T04:18:39;11.00;99.90
5280;DHT22;2663;53.588;10.010;2022-12-20T04:21:06;11.00;99.90
5280;DHT22;2663;53.588;10.010;2022-12-20T04:23:35;11.10;99.90
5280;DHT22;2663;53.588;10.010;2022-12-20T04:26:03;11.10;99.90
5280;DHT22;2663;53.588;10.010;2022-12-20T04:28:30;11.10;99.90
5280;DHT22;2663;53.588;10.010;2022-12-20T04:30:57;11.20;99.90
5280;DHT22;2663;53.588;10.010;2022-12-20T04:33:25;11.20;99.90
5280;DHT22;2663;53.588;10.010;2022-12-20T04:35:52;11.20;99.90
5280;DHT22;2663;53.588;10.010;2022-12-20T04:38:20;11.20;99.90
5280;DHT22;2663;53.588;10.010;2022-12-20T04:40:52;11.20;99.90
5280;DHT22;2663;53.588;10.010;2022-12-20T04:43:19;11.20;99.90
5280;DHT22;2663;53.588;10.010;2022-12-20T04:45:48;11.20;99.90
5280;DHT22;2663;53.588;10.010;2022-12-20T04:48:15;11.20;99.90
5280;DHT22;2663;53.588;10.010;2022-12-20T04:51:02;11.20;99.90
5280;DHT22;2663;53.588;10.010;2022-12-20T04:53:29;11.20;99.90
5280;DHT22;2663;53.588;10.010;2022-12-20T04:56:18;11.20;99.90
5280;DHT22;2663;53.588;10.010;2022-12-20T04:58:46;11.30;99.90
5280;DHT22;2663;53.588;10.010;2022-12-20T05:01:13;11.20;99.90
5280;DHT22;2663;53.588;10.010;2022-12-20T05:03:40;11.20;99.90
5280;DHT22;2663;53.588;10.010;2022-12-20T05:06:07;11.20;99.90
5280;DHT22;2663;53.588;10.010;2022-12-20T05:08:34;11.20;99.90
5280;DHT22;2663;53.588;10.010;2022-12-20T05:11:01;11.20;99.90
5280;DHT22;2663;53.588;10.010;2022-12-20T05:13:28;11.10;99.90
5280;DHT22;2663;53.588;10.010;2022-12-20T05:15:55;11.10;99.90
5280;DHT22;2663;53.588;10.010;2022-12-20T05:18:23;11.10;99.90
5280;DHT22;2663;53.588;10.010;2022-12-20T05:20:49;11.00;99.90
5280;DHT22;2663;53.588;10.010;2022-12-20T05:23:37;11.00;99.90
5280;DHT22;2663;53.588;10.010;2022-12-20T05:26:22;11.00;99.90
5280;DHT22;2663;53.588;10.010;2022-12-20T05:28:51;10.90;99.90
5280;DHT22;2663;53.588;10.010;2022-12-20T05:31:24;10.90;99.90
5280;DHT22;2663;53.588;10.010;2022-12-20T05:33:51;11.00;99.90
5280;DHT22;2663;53.588;10.010;2022-12-20T05:36:18;11.00;99.90
5280;DHT22;2663;53.588;10.010;2022-12-20T05:38:45;10.90;99.90
5280;DHT22;2663;53.588;10.010;2022-12-20T05:41:12;10.90;99.90
5280;DHT22;2663;53.588;10.010;2022-12-20T05:43:39;10.90;99.90
5280;DHT22;2663;53.588;10.010;2022-12-20T05:46:05;11.00;99.90
5280;DHT22;2663;53.588;10.010;2022-12-20T05:48:32;11.00;99.90
5280;DHT22;2663;53.588;10.010;2022-12-20T05:50:59;11.00;99.90
5280;DHT22;2663;53.588;10.010;2022-12-20T05:53:27;11.00;99.90
5280;DHT22;2663;53.588;10.010;2022-12-20T05:55:54;11.00;99.90
5280;DHT22;2663;53.588;10.010;2022-12-20T05:58:20;11.00;99.90
5280;DHT22;2663;53.588;10.010;2022-12-20T06:00:47;11.00;99.90
5280;DHT22;2663;53.588;10.010;2022-12-20T06:03:14;11.00;99.90
5280;DHT22;2663;53.588;10.010;2022-12-20T06:05:43;11.00;99.90
5280;DHT22;2663;53.588;10.010;2022-12-20T06:08:11;10.90;99.90
5280;DHT22;2663;53.588;10.010;2022-12-20T06:10:39;10.90;99.90
5280;DHT22;2663;53.588;10.010;2022-12-20T06:13:08;10.90;99.90
5280;DHT22;2663;53.588;10.010;2022-12-20T06:15:35;10.80;99.90
5280;DHT22;2663;53.588;10.010;2022-12-20T06:18:02;10.80;99.90
5280;DHT22;2663;53.588;10.010;2022-12-20T06:20:29;10.80;99.90
5280;DHT22;2663;53.588;10.010;2022-12-20T06:22:56;10.70;99.90
5280;DHT22;2663;53.588;10.010;2022-12-20T06:25:23;10.70;99.90
5280;DHT22;2663;53.588;10.010;2022-12-20T06:27:50;10.70;99.90
5280;DHT22;2663;53.588;10.010;2022-12-20T06:30:18;10.70;99.90
5280;DHT22;2663;53.588;10.010;2022-12-20T06:32:44;10.80;99.90
5280;DHT22;2663;53.588;10.010;2022-12-20T06:35:11;10.80;99.90
5280;DHT22;2663;53.588;10.010;2022-12-20T06:37:38;10.80;99.90
5280;DHT22;2663;53.588;10.010;2022-12-20T06:40:10;10.80;99.90
5280;DHT22;2663;53.588;10.010;2022-12-20T06:42:37;10.80;99.90
5280;DHT22;2663;53.588;10.010;2022-12-20T06:45:05;10.90;99.90
5280;DHT22;2663;53.588;10.010;2022-12-20T06:47:31;10.90;99.90
5280;DHT22;2663;53.588;10.010;2022-12-20T06:49:58;10.90;99.90
5280;DHT22;2663;53.588;10.010;2022-12-20T06:52:25;10.90;99.90
5280;DHT22;2663;53.588;10.010;2022-12-20T06:54:51;10.90;99.90
5280;DHT22;2663;53.588;10.010;2022-12-20T06:57:18;11.00;99.90
5280;DHT22;2663;53.588;10.010;2022-12-20T06:59:45;10.90;99.90
5280;DHT22;2663;53.588;10.010;2022-12-20T07:02:12;10.90;99.90
5280;DHT22;2663;53.588;10.010;2022-12-20T07:04:39;10.90;99.90
5280;DHT22;2663;53.588;10.010;2022-12-20T07:07:06;10.90;99.90
5280;DHT22;2663;53.588;10.010;2022-12-20T07:09:33;10.90;99.90
5280;DHT22;2663;53.588;10.010;2022-12-20T07:12:00;10.90;99.90
5280;DHT22;2663;53.588;10.010;2022-12-20T07:14:26;10.90;99.90
5280;DHT22;2663;53.588;10.010;2022-12-20T07:16:53;10.80;99.90
5280;DHT22;2663;53.588;10.010;2022-12-20T07:19:20;10.80;99.90
5280;DHT22;2663;53.588;10.010;2022-12-20T07:21:47;10.80;99.90
5280;DHT22;2663;53.588;10.010;2022-12-20T07:24:14;10.70;99.90
5280;DHT22;2663;53.588;10.010;2022-12-20T07:26:43;10.70;99.90
5280;DHT22;2663;53.588;10.010;2022-12-20T07:29:12;10.70;99.90
5280;DHT22;2663;53.588;10.010;2022-12-20T07:31:41;10.70;99.90
5280;DHT22;2663;53.588;10.010;2022-12-20T07:34:09;10.70;99.90
5280;DHT22;2663;53.588;10.010;2022-12-20T07:36:36;10.70;99.90
5280;DHT22;2663;53.588;10.010;2022-12-20T07:39:03;10.70;99.90
5280;DHT22;2663;53.588;10.010;2022-12-20T07:41:29;10.70;99.90
5280;DHT22;2663;53.588;10.010;2022-12-20T07:43:56;10.70;99.90
5280;DHT22;2663;53.588;10.010;2022-12-20T07:46:24;10.80;99.90
5280;DHT22;2663;53.588;10.010;2022-12-20T07:48:51;10.80;99.90
5280;DHT22;2663;53.588;10.010;2022-12-20T07:51:25;10.80;99.90
5280;DHT22;2663;53.588;10.010;2022-12-20T07:54:24;10.80;99.90
5280;DHT22;2663;53.588;10.010;2022-12-20T07:57:02;10.70;99.90
5280;DHT22;2663;53.588;10.010;2022-12-20T07:59:38;10.70;99.90
5280;DHT22;2663;53.588;10.010;2022-12-20T08:02:15;10.70;99.90
5280;DHT22;2663;53.588;10.010;2022-12-20T08:04:43;10.80;99.90
5280;DHT22;2663;53.588;10.010;2022-12-20T08:07:10;10.70;99.90
5280;DHT22;2663;53.588;10.010;2022-12-20T08:09:40;10.70;99.90
5280;DHT22;2663;53.588;10.010;2022-12-20T08:12:08;10.60;99.90
5280;DHT22;2663;53.588;10.010;2022-12-20T08:14:35;10.70;99.90
5280;DHT22;2663;53.588;10.010;2022-12-20T08:17:03;10.60;99.90
5280;DHT22;2663;53.588;10.010;2022-12-20T08:19:29;10.60;99.90
5280;DHT22;2663;53.588;10.010;2022-12-20T08:21:58;10.70;99.90
5280;DHT22;2663;53.588;10.010;2022-12-20T08:24:25;10.60;99.90
5280;DHT22;2663;53.588;10.010;2022-12-20T08:26:51;10.70;99.90
5280;DHT22;2663;53.588;10.010;2022-12-20T08:29:18;10.70;99.90
5280;DHT22;2663;53.588;10.010;2022-12-20T08:31:45;10.70;99.90
5280;DHT22;2663;53.588;10.010;2022-12-20T08:34:16;10.70;99.90
5280;DHT22;2663;53.588;10.010;2022-12-20T08:36:43;10.70;99.90
5280;DHT22;2663;53.588;10.010;2022-12-20T08:39:09;10.70;99.90
5280;DHT22;2663;53.588;10.010;2022-12-20T08:41:37;10.80;99.90
5280;DHT22;2663;53.588;10.010;2022-12-20T08:44:06;10.80;99.90
5280;DHT22;2663;53.588;10.010;2022-12-20T08:46:33;10.90;99.90
5280;DHT22;2663;53.588;10.010;2022-12-20T08:49:00;10.90;99.90
5280;DHT22;2663;53.588;10.010;2022-12-20T08:51:26;10.30;99.90
5280;DHT22;2663;53.588;10.010;2022-12-20T08:53:54;10.90;99.90
5280;DHT22;2663;53.588;10.010;2022-12-20T08:56:21;10.90;99.90
5280;DHT22;2663;53.588;10.010;2022-12-20T08:58:48;11.00;99.90
5280;DHT22;2663;53.588;10.010;2022-12-20T09:01:17;11.00;99.90
5280;DHT22;2663;53.588;10.010;2022-12-20T09:03:44;11.00;99.90
5280;DHT22;2663;53.588;10.010;2022-12-20T09:06:17;11.00;99.90
5280;DHT22;2663;53.588;10.010;2022-12-20T09:08:46;11.10;99.90
5280;DHT22;2663;53.588;10.010;2022-12-20T09:11:19;11.10;99.90
5280;DHT22;2663;53.588;10.010;2022-12-20T09:13:47;11.10;99.90
5280;DHT22;2663;53.588;10.010;2022-12-20T09:16:17;11.20;99.90
5280;DHT22;2663;53.588;10.010;2022-12-20T09:18:48;11.20;99.90
5280;DHT22;2663;53.588;10.010;2022-12-20T09:21:15;11.30;99.90
5280;DHT22;2663;53.588;10.010;2022-12-20T09:23:42;11.30;99.90
5280;DHT22;2663;53.588;10.010;2022-12-20T09:26:13;11.30;99.90
5280;DHT22;2663;53.588;10.010;2022-12-20T09:28:41;11.30;99.90
5280;DHT22;2663;53.588;10.010;2022-12-20T09:31:11;11.40;99.90
5280;DHT22;2663;53.588;10.010;2022-12-20T09:33:38;11.40;99.90
5280;DHT22;2663;53.588;10.010;2022-12-20T09:36:05;11.30;99.90
5280;DHT22;2663;53.588;10.010;2022-12-20T09:38:32;11.40;99.90
5280;DHT22;2663;53.588;10.010;2022-12-20T09:41:04;11.40;99.90
5280;DHT22;2663;53.588;10.010;2022-12-20T09:43:33;11.30;99.90
5280;DHT22;2663;53.588;10.010;2022-12-20T09:46:01;11.40;99.90
5280;DHT22;2663;53.588;10.010;2022-12-20T09:48:31;11.50;99.90
5280;DHT22;2663;53.588;10.010;2022-12-20T09:51:31;11.50;99.90
5280;DHT22;2663;53.588;10.010;2022-12-20T09:54:30;11.40;99.90
5280;DHT22;2663;53.588;10.010;2022-12-20T09:57:11;11.50;99.90
5280;DHT22;2663;53.588;10.010;2022-12-20T09:59:41;11.50;99.90
5280;DHT22;2663;53.588;10.010;2022-12-20T10:02:19;11.50;99.90
5280;DHT22;2663;53.588;10.010;2022-12-20T10:05:21;11.50;99.90
5280;DHT22;2663;53.588;10.010;2022-12-20T10:10:45;11.50;99.90
5280;DHT22;2663;53.588;10.010;2022-12-20T10:13:24;11.50;99.90
5280;DHT22;2663;53.588;10.010;2022-12-20T10:16:23;11.40;99.90
5280;DHT22;2663;53.588;10.010;2022-12-20T10:24:30;11.40;99.90
5280;DHT22;2663;53.588;10.010;2022-12-20T10:27:23;11.40;99.90
5280;DHT22;2663;53.588;10.010;2022-12-20T10:29:48;11.50;99.90
5280;DHT22;2663;53.588;10.010;2022-12-20T10:32:18;11.50;99.90
5280;DHT22;2663;53.588;10.010;2022-12-20T10:37:25;11.50;99.90
5280;DHT22;2663;53.588;10.010;2022-12-20T10:39:52;11.60;99.90
5280;DHT22;2663;53.588;10.010;2022-12-20T10:42:37;11.70;99.90
5280;DHT22;2663;53.588;10.010;2022-12-20T10:47:48;11.80;99.90
5280;DHT22;2663;53.588;10.010;2022-12-20T10:50:21;11.80;99.90
5280;DHT22;2663;53.588;10.010;2022-12-20T10:55:41;11.80;99.90
5280;DHT22;2663;53.588;10.010;2022-12-20T10:58:28;11.80;99.90
5280;DHT22;2663;53.588;10.010;2022-12-20T11:01:13;11.90;99.90
5280;DHT22;2663;53.588;10.010;2022-12-20T11:04:01;11.80;99.90
5280;DHT22;2663;53.588;10.010;2022-12-20T11:06:40;11.80;99.90
5280;DHT22;2663;53.588;10.010;2022-12-20T11:12:11;11.90;99.90
5280;DHT22;2663;53.588;10.010;2022-12-20T11:14:40;11.90;99.90
5280;DHT22;2663;53.588;10.010;2022-12-20T11:19:44;12.10;99.90
5280;DHT22;2663;53.588;10.010;2022-12-20T11:22:37;12.20;99.90
5280;DHT22;2663;53.588;10.010;2022-12-20T11:25:32;12.30;99.90
5280;DHT22;2663;53.588;10.010;2022-12-20T11:31:03;12.10;99.90
5280;DHT22;2663;53.588;10.010;2022-12-20T11:33:51;12.20;99.90
5280;DHT22;2663;53.588;10.010;2022-12-20T11:36:31;12.20;99.90
5280;DHT22;2663;53.588;10.010;2022-12-20T11:39:37;12.20;99.90
5280;DHT22;2663;53.588;10.010;2022-12-20T11:56:05;12.10;99.90
5280;DHT22;2663;53.588;10.010;2022-12-20T11:58:58;12.10;99.90
5280;DHT22;2663;53.588;10.010;2022-12-20T12:01:37;12.20;99.90
5280;DHT22;2663;53.588;10.010;2022-12-20T12:06:43;12.30;99.90
5280;DHT22;2663;53.588;10.010;2022-12-20T12:11:48;12.40;99.90
5280;DHT22;2663;53.588;10.010;2022-12-20T12:14:54;12.30;99.90
5280;DHT22;2663;53.588;10.010;2022-12-20T12:23:41;12.40;99.90
5280;DHT22;2663;53.588;10.010;2022-12-20T12:26:31;12.40;99.90
5280;DHT22;2663;53.588;10.010;2022-12-20T12:29:00;12.40;99.90
5280;DHT22;2663;53.588;10.010;2022-12-20T12:40:27;12.30;99.90
5280;DHT22;2663;53.588;10.010;2022-12-20T12:45:55;12.10;99.90
5280;DHT22;2663;53.588;10.010;2022-12-20T12:51:12;12.00;99.90
5280;DHT22;2663;53.588;10.010;2022-12-20T12:53:48;11.90;99.90
5280;DHT22;2663;53.588;10.010;2022-12-20T13:04:59;11.80;99.90
5280;DHT22;2663;53.588;10.010;2022-12-20T13:13:11;11.80;99.90
5280;DHT22;2663;53.588;10.010;2022-12-20T13:20:35;11.70;99.90
5280;DHT22;2663;53.588;10.010;2022-12-20T13:25:40;11.60;99.90
5280;DHT22;2663;53.588;10.010;2022-12-20T13:33:48;11.60;99.90
5280;DHT22;2663;53.588;10.010;2022-12-20T13:36:35;11.50;99.90
5280;DHT22;2663;53.588;10.010;2022-12-20T13:42:29;11.50;99.90
5280;DHT22;2663;53.588;10.010;2022-12-20T13:45:02;11.50;99.90
5280;DHT22;2663;53.588;10.010;2022-12-20T13:47:38;11.50;99.90
5280;DHT22;2663;53.588;10.010;2022-12-20T13:50:26;11.50;99.90
5280;DHT22;2663;53.588;10.010;2022-12-20T13:52:53;11.50;99.90
5280;DHT22;2663;53.588;10.010;2022-12-20T13:55:34;11.50;99.90
5280;DHT22;2663;53.588;10.010;2022-12-20T13:58:31;11.50;99.90
5280;DHT22;2663;53.588;10.010;2022-12-20T14:01:05;11.50;99.90
5280;DHT22;2663;53.588;10.010;2022-12-20T14:03:39;11.50;99.90
5280;DHT22;2663;53.588;10.010;2022-12-20T14:06:11;11.40;99.90
5280;DHT22;2663;53.588;10.010;2022-12-20T14:08:45;11.40;99.90
5280;DHT22;2663;53.588;10.010;2022-12-20T14:11:18;11.40;99.90
5280;DHT22;2663;53.588;10.010;2022-12-20T14:14:03;11.40;99.90
5280;DHT22;2663;53.588;10.010;2022-12-20T14:16:31;11.40;99.90
5280;DHT22;2663;53.588;10.010;2022-12-20T14:19:04;11.30;99.90
5280;DHT22;2663;53.588;10.010;2022-12-20T14:21:35;11.40;99.90
5280;DHT22;2663;53.588;10.010;2022-12-20T14:24:03;11.40;99.90
5280;DHT22;2663;53.588;10.010;2022-12-20T14:26:37;11.30;99.90
5280;DHT22;2663;53.588;10.010;2022-12-20T14:29:10;11.40;99.90
5280;DHT22;2663;53.588;10.010;2022-12-20T14:31:40;11.50;99.90
5280;DHT22;2663;53.588;10.010;2022-12-20T14:36:37;11.30;99.90
5280;DHT22;2663;53.588;10.010;2022-12-20T14:41:59;11.30;99.90
5280;DHT22;2663;53.588;10.010;2022-12-20T14:44:28;11.20;99.90
5280;DHT22;2663;53.588;10.010;2022-12-20T14:47:01;11.20;99.90
5280;DHT22;2663;53.588;10.010;2022-12-20T14:49:31;11.20;99.90
5280;DHT22;2663;53.588;10.010;2022-12-20T14:54:45;11.20;99.90
5280;DHT22;2663;53.588;10.010;2022-12-20T15:13:15;11.10;99.90
5280;DHT22;2663;53.588;10.010;2022-12-20T15:15:42;11.10;99.90
5280;DHT22;2663;53.588;10.010;2022-12-20T15:18:14;11.10;99.90
5280;DHT22;2663;53.588;10.010;2022-12-20T15:20:42;11.20;99.90
5280;DHT22;2663;53.588;10.010;2022-12-20T15:23:19;11.10;99.90
5280;DHT22;2663;53.588;10.010;2022-12-20T15:25:46;11.10;99.90
5280;DHT22;2663;53.588;10.010;2022-12-20T15:28:19;11.20;99.90
5280;DHT22;2663;53.588;10.010;2022-12-20T15:30:47;11.30;99.90
5280;DHT22;2663;53.588;10.010;2022-12-20T15:33:26;11.20;99.90
5280;DHT22;2663;53.588;10.010;2022-12-20T15:35:55;11.30;99.90
5280;DHT22;2663;53.588;10.010;2022-12-20T15:38:26;11.20;99.90
5280;DHT22;2663;53.588;10.010;2022-12-20T15:41:20;11.20;99.90
5280;DHT22;2663;53.588;10.010;2022-12-20T15:43:50;11.20;99.90
5280;DHT22;2663;53.588;10.010;2022-12-20T15:46:17;11.30;99.90
5280;DHT22;2663;53.588;10.010;2022-12-20T15:48:44;11.30;99.90
5280;DHT22;2663;53.588;10.010;2022-12-20T15:51:17;11.30;99.90
5280;DHT22;2663;53.588;10.010;2022-12-20T15:53:44;11.20;99.90
5280;DHT22;2663;53.588;10.010;2022-12-20T15:56:19;11.20;99.90
5280;DHT22;2663;53.588;10.010;2022-12-20T15:58:47;11.10;99.90
5280;DHT22;2663;53.588;10.010;2022-12-20T16:01:19;11.10;99.90
5280;DHT22;2663;53.588;10.010;2022-12-20T16:03:46;11.10;99.90
5280;DHT22;2663;53.588;10.010;2022-12-20T16:06:13;11.10;99.90
5280;DHT22;2663;53.588;10.010;2022-12-20T16:08:40;11.10;99.90
5280;DHT22;2663;53.588;10.010;2022-12-20T16:11:21;11.20;99.90
5280;DHT22;2663;53.588;10.010;2022-12-20T16:13:48;11.10;99.90
5280;DHT22;2663;53.588;10.010;2022-12-20T16:16:17;11.20;99.90
5280;DHT22;2663;53.588;10.010;2022-12-20T16:18:44;11.20;99.90
5280;DHT22;2663;53.588;10.010;2022-12-20T16:21:16;11.20;99.90
5280;DHT22;2663;53.588;10.010;2022-12-20T16:23:45;11.20;99.90
5280;DHT22;2663;53.588;10.010;2022-12-20T16:26:13;11.20;99.90
5280;DHT22;2663;53.588;10.010;2022-12-20T16:28:41;11.20;99.90
5280;DHT22;2663;53.588;10.010;2022-12-20T16:31:23;11.20;99.90
5280;DHT22;2663;53.588;10.010;2022-12-20T16:33:51;11.20;99.90
5280;DHT22;2663;53.588;10.010;2022-12-20T16:36:18;11.20;99.90
5280;DHT22;2663;53.588;10.010;2022-12-20T16:38:45;11.20;99.90
5280;DHT22;2663;53.588;10.010;2022-12-20T16:41:23;11.20;99.90
5280;DHT22;2663;53.588;10.010;2022-12-20T16:43:50;11.20;99.90
5280;DHT22;2663;53.588;10.010;2022-12-20T16:46:18;11.10;99.90
5280;DHT22;2663;53.588;10.010;2022-12-20T16:48:46;11.10;99.90
5280;DHT22;2663;53.588;10.010;2022-12-20T16:51:23;11.10;99.90
5280;DHT22;2663;53.588;10.010;2022-12-20T16:53:51;11.10;99.90
5280;DHT22;2663;53.588;10.010;2022-12-20T16:56:38;11.10;99.90
5280;DHT22;2663;53.588;10.010;2022-12-20T16:59:06;11.10;99.90
5280;DHT22;2663;53.588;10.010;2022-12-20T17:01:45;11.10;99.90
5280;DHT22;2663;53.588;10.010;2022-12-20T17:04:15;11.10;99.90
5280;DHT22;2663;53.588;10.010;2022-12-20T17:06:42;11.10;99.90
5280;DHT22;2663;53.588;10.010;2022-12-20T17:09:09;11.10;99.90
5280;DHT22;2663;53.588;10.010;2022-12-20T17:11:53;11.10;99.90
5280;DHT22;2663;53.588;10.010;2022-12-20T17:14:20;11.10;99.90
5280;DHT22;2663;53.588;10.010;2022-12-20T17:16:46;11.10;99.90
5280;DHT22;2663;53.588;10.010;2022-12-20T17:19:13;11.10;99.90
5280;DHT22;2663;53.588;10.010;2022-12-20T17:21:43;11.20;99.90
5280;DHT22;2663;53.588;10.010;2022-12-20T17:24:28;11.20;99.90
5280;DHT22;2663;53.588;10.010;2022-12-20T17:26:55;11.20;99.90
5280;DHT22;2663;53.588;10.010;2022-12-20T17:29:21;11.20;99.90
5280;DHT22;2663;53.588;10.010;2022-12-20T17:31:48;11.20;99.90
5280;DHT22;2663;53.588;10.010;2022-12-20T17:34:16;11.30;99.90
5280;DHT22;2663;53.588;10.010;2022-12-20T17:36:47;11.30;99.90
5280;DHT22;2663;53.588;10.010;2022-12-20T17:39:14;11.30;99.90
5280;DHT22;2663;53.588;10.010;2022-12-20T17:41:42;11.30;99.90
5280;DHT22;2663;53.588;10.010;2022-12-20T17:44:23;11.30;99.90
5280;DHT22;2663;53.588;10.010;2022-12-20T17:46:51;11.30;99.90
5280;DHT22;2663;53.588;10.010;2022-12-20T17:49:18;11.30;99.90
5280;DHT22;2663;53.588;10.010;2022-12-20T17:51:45;11.30;99.90
5280;DHT22;2663;53.588;10.010;2022-12-20T17:54:17;11.30;99.90
5280;DHT22;2663;53.588;10.010;2022-12-20T17:56:45;11.30;99.90
5280;DHT22;2663;53.588;10.010;2022-12-20T17:59:12;11.30;99.90
5280;DHT22;2663;53.588;10.010;2022-12-20T18:01:41;11.30;99.90
5280;DHT22;2663;53.588;10.010;2022-12-20T18:04:10;11.30;99.90
5280;DHT22;2663;53.588;10.010;2022-12-20T18:06:39;11.30;99.90
5280;DHT22;2663;53.588;10.010;2022-12-20T18:09:18;11.40;99.90
5280;DHT22;2663;53.588;10.010;2022-12-20T18:11:45;11.40;99.90
5280;DHT22;2663;53.588;10.010;2022-12-20T18:14:13;11.40;99.90
5280;DHT22;2663;53.588;10.010;2022-12-20T18:16:40;11.40;99.90
5280;DHT22;2663;53.588;10.010;2022-12-20T18:19:09;11.40;99.90
5280;DHT22;2663;53.588;10.010;2022-12-20T18:21:39;11.40;99.90
5280;DHT22;2663;53.588;10.010;2022-12-20T18:24:10;11.40;99.90
5280;DHT22;2663;53.588;10.010;2022-12-20T18:26:37;11.30;99.90
5280;DHT22;2663;53.588;10.010;2022-12-20T18:29:04;11.30;99.90